地図

経路データ

SID SEASON NUMBER BASIN SUBBASIN NAME ISO_TIME NATURE LAT LON WMO_WIND WMO_PRES WMO_AGENCY TRACK_TYPE DIST2LAND LANDFALL IFLAG USA_AGENCY USA_ATCF_ID USA_LAT USA_LON USA_RECORD USA_STATUS USA_WIND USA_PRES USA_SSHS USA_R34_NE USA_R34_SE USA_R34_SW USA_R34_NW USA_R50_NE USA_R50_SE USA_R50_SW USA_R50_NW USA_R64_NE USA_R64_SE USA_R64_SW USA_R64_NW USA_POCI USA_ROCI USA_RMW USA_EYE TOKYO_LAT TOKYO_LON TOKYO_GRADE TOKYO_WIND TOKYO_PRES TOKYO_R50_DIR TOKYO_R50_LONG TOKYO_R50_SHORT TOKYO_R30_DIR TOKYO_R30_LONG TOKYO_R30_SHORT TOKYO_LAND CMA_LAT CMA_LON CMA_CAT CMA_WIND CMA_PRES HKO_LAT HKO_LON HKO_CAT HKO_WIND HKO_PRES NEWDELHI_LAT NEWDELHI_LON NEWDELHI_GRADE NEWDELHI_WIND NEWDELHI_PRES NEWDELHI_CI NEWDELHI_DP NEWDELHI_POCI REUNION_LAT REUNION_LON REUNION_TYPE REUNION_WIND REUNION_PRES REUNION_TNUM REUNION_CI REUNION_RMW REUNION_R34_NE REUNION_R34_SE REUNION_R34_SW REUNION_R34_NW REUNION_R50_NE REUNION_R50_SE REUNION_R50_SW REUNION_R50_NW REUNION_R64_NE REUNION_R64_SE REUNION_R64_SW REUNION_R64_NW BOM_LAT BOM_LON BOM_TYPE BOM_WIND BOM_PRES BOM_TNUM BOM_CI BOM_RMW BOM_R34_NE BOM_R34_SE BOM_R34_SW BOM_R34_NW BOM_R50_NE BOM_R50_SE BOM_R50_SW BOM_R50_NW BOM_R64_NE BOM_R64_SE BOM_R64_SW BOM_R64_NW BOM_ROCI BOM_POCI BOM_EYE BOM_POS_METHOD BOM_PRES_METHOD NADI_LAT NADI_LON NADI_CAT NADI_WIND NADI_PRES WELLINGTON_LAT WELLINGTON_LON WELLINGTON_WIND WELLINGTON_PRES DS824_LAT DS824_LON DS824_STAGE DS824_WIND DS824_PRES TD9636_LAT TD9636_LON TD9636_STAGE TD9636_WIND TD9636_PRES TD9635_LAT TD9635_LON TD9635_WIND TD9635_PRES TD9635_ROCI NEUMANN_LAT NEUMANN_LON NEUMANN_CLASS NEUMANN_WIND NEUMANN_PRES MLC_LAT MLC_LON MLC_CLASS MLC_WIND MLC_PRES USA_GUST BOM_GUST BOM_GUST_PER REUNION_GUST REUNION_GUST_PER USA_SEAHGT USA_SEARAD_NE USA_SEARAD_SE USA_SEARAD_SW USA_SEARAD_NW STORM_SPEED STORM_DIR
1888250N15330 1888 42 NA NA NOT_NAMED 1888-09-05 12:00:00 TS 15.2000 -29.8000 main 1323 1323 _____________O -1 15.2000 -29.8000 TD 30 16 285
1888250N15330 1888 42 NA NA NOT_NAMED 1888-09-05 15:00:00 TS 15.4106 -30.5996 main 1409 1409 _____________P -1 15.4106 -30.5996 TD 30 16 285
1888250N15330 1888 42 NA NA NOT_NAMED 1888-09-05 18:00:00 TS 15.6000 -31.4000 main 1495 1495 _____________O -1 15.6000 -31.4000 TD 30 16 283
1888250N15330 1888 42 NA NA NOT_NAMED 1888-09-05 21:00:00 TS 15.7572 -32.2002 main 1582 1582 _____________P -1 15.7572 -32.2002 TD 30 16 281
1888250N15330 1888 42 NA NA NOT_NAMED 1888-09-06 00:00:00 TS 15.9000 -33.0000 main 1668 1668 _____________O -1 15.9000 -33.0000 TD 30 16 281
1888250N15330 1888 42 NA NA NOT_NAMED 1888-09-06 03:00:00 TS 16.0497 -33.8001 main 1754 1754 _____________P -1 16.0497 -33.8001 TD 30 16 281
1888250N15330 1888 42 NA NA NOT_NAMED 1888-09-06 06:00:00 TS 16.2000 -34.6000 main 1840 1840 _____________O -1 16.2000 -34.6000 TD 30 16 279
1888250N15330 1888 42 NA NA NOT_NAMED 1888-09-06 09:00:00 TS 16.3050 -35.4305 main 1926 1926 _____________P -1 16.3050 -35.4305 TD 32 16 281
1888250N15330 1888 42 NA NA NOT_NAMED 1888-09-06 12:00:00 TS 16.5000 -36.2000 main 2012 2012 _____________O -1 16.5000 -36.2000 TS 35 15 294
1888250N15330 1888 42 NA NA NOT_NAMED 1888-09-06 15:00:00 TS 16.9046 -36.8374 main 2079 2079 _____________P -1 16.9046 -36.8374 TS 37 15 308
1888250N15330 1888 42 NA NA NOT_NAMED 1888-09-06 18:00:00 TS 17.4000 -37.4000 main 2109 2101 _____________O -1 17.4000 -37.4000 TS 40 14 312
1888250N15330 1888 42 NA NA NOT_NAMED 1888-09-06 21:00:00 TS 17.8497 -37.9504 main 2093 2093 _____________P -1 17.8497 -37.9504 TS 42 14 311
1888250N15330 1888 42 NA NA NOT_NAMED 1888-09-07 00:00:00 TS 18.3000 -38.5000 main 2096 2086 _____________O -1 18.3000 -38.5000 TS 45 14 309
1888250N15330 1888 42 NA NA NOT_NAMED 1888-09-07 03:00:00 TS 18.7425 -39.1003 main 2087 2084 _____________P -1 18.7425 -39.1003 TS 47 15 308
1888250N15330 1888 42 NA NA NOT_NAMED 1888-09-07 06:00:00 TS 19.2000 -39.7000 main 2090 2086 _____________O -1 19.2000 -39.7000 TS 50 15 310
1888250N15330 1888 42 NA NA NOT_NAMED 1888-09-07 09:00:00 TS 19.6926 -40.3098 main 2096 2090 _____________P -1 19.6926 -40.3098 TS 50 14 314
1888250N15330 1888 42 NA NA NOT_NAMED 1888-09-07 12:00:00 TS 20.2000 -40.8000 main 2109 2109 _____________O -1 20.2000 -40.8000 TS 50 12 325
1888250N15330 1888 42 NA NA NOT_NAMED 1888-09-07 15:00:00 TS 20.6997 -41.0531 main 2134 2134 _____________P -1 20.6997 -41.0531 TS 50 11 340
1888250N15330 1888 42 NA NA NOT_NAMED 1888-09-07 18:00:00 TS 21.2000 -41.2000 main 2172 2172 _____________O -1 21.2000 -41.2000 TS 50 11 342
1888250N15330 1888 42 NA NA NOT_NAMED 1888-09-07 21:00:00 TS 21.7000 -41.4001 main 2206 2206 _____________P -1 21.7000 -41.4001 TS 50 11 340
1888250N15330 1888 42 NA NA NOT_NAMED 1888-09-08 00:00:00 TS 22.2000 -41.6000 main 2241 2241 _____________O -1 22.2000 -41.6000 TS 50 11 339
1888250N15330 1888 42 NA NA NOT_NAMED 1888-09-08 03:00:00 TS 22.7000 -41.8076 main 2276 2276 _____________P -1 22.7000 -41.8076 TS 50 11 340
1888250N15330 1888 42 NA NA NOT_NAMED 1888-09-08 06:00:00 TS 23.2000 -42.0000 main 2313 2313 _____________O -1 23.2000 -42.0000 TS 50 11 340
1888250N15330 1888 42 NA NA NOT_NAMED 1888-09-08 09:00:00 TS 23.7150 -42.2022 main 2351 2351 _____________P -1 23.7150 -42.2022 TS 50 10 345
1888250N15330 1888 42 NA NA NOT_NAMED 1888-09-08 12:00:00 TS 24.2000 -42.3000 main 2395 2395 _____________O -1 24.2000 -42.3000 TS 50 9 0
1888250N15330 1888 42 NA NA NOT_NAMED 1888-09-08 15:00:00 TS 24.6150 -42.1953 main 2438 2438 _____________P -1 24.6150 -42.1953 TS 50 8 19
1888250N15330 1888 42 NA NA NOT_NAMED 1888-09-08 18:00:00 TS 25.0000 -42.0000 main 2487 2487 _____________O -1 25.0000 -42.0000 TS 50 8 20
1888250N15330 1888 42 NA NA NOT_NAMED 1888-09-08 21:00:00 TS 25.4074 -41.8722 main 2503 2474 _____________P -1 25.4074 -41.8722 TS 50 8 19
1888250N15330 1888 42 NA NA NOT_NAMED 1888-09-09 00:00:00 TS 25.8000 -41.7000 main 2474 2438 _____________O -1 25.8000 -41.7000 TS 50 8 28
1888250N15330 1888 42 NA NA NOT_NAMED 1888-09-09 03:00:00 TS 26.1500 -41.4298 main 2436 2400 _____________P -1 26.1500 -41.4298 TS 50 9 38
1888250N15330 1888 42 NA NA NOT_NAMED 1888-09-09 06:00:00 TS 26.5000 -41.1000 main 2400 2363 _____________O -1 26.5000 -41.1000 TS 50 10 37
1888250N15330 1888 42 NA NA NOT_NAMED 1888-09-09 09:00:00 TS 26.9147 -40.7874 main 2363 2317 _____________P -1 26.9147 -40.7874 TS 50 10 38
1888250N15330 1888 42 NA NA NOT_NAMED 1888-09-09 12:00:00 TS 27.3000 -40.4000 main 2317 2264 _____________O -1 27.3000 -40.4000 TS 50 10 50
1888250N15330 1888 42 NA NA NOT_NAMED 1888-09-09 15:00:00 TS 27.5801 -39.8798 main 2264 2203 _____________P -1 27.5801 -39.8798 TS 50 11 63
1888250N15330 1888 42 NA NA NOT_NAMED 1888-09-09 18:00:00 TS 27.8000 -39.3000 main 2203 2151 _____________O -1 27.8000 -39.3000 TS 50 11 67
1888250N15330 1888 42 NA NA NOT_NAMED 1888-09-09 21:00:00 TS 27.9998 -38.7496 main 2141 2090 _____________P -1 27.9998 -38.7496 TS 50 11 68
1888250N15330 1888 42 NA NA NOT_NAMED 1888-09-10 00:00:00 TS 28.2000 -38.2000 main 2090 2040 _____________O -1 28.2000 -38.2000 TS 50 11 65
1888250N15330 1888 42 NA NA NOT_NAMED 1888-09-10 03:00:00 TS 28.4423 -37.6499 main 2030 1979 _____________P -1 28.4423 -37.6499 TS 50 11 63
1888250N15330 1888 42 NA NA NOT_NAMED 1888-09-10 06:00:00 TS 28.7000 -37.1000 main 1979 1929 _____________O -1 28.7000 -37.1000 TS 50 11 63
1888250N15330 1888 42 NA NA NOT_NAMED 1888-09-10 09:00:00 TS 28.9195 -36.5715 main 1929 1870 _____________P -1 28.9195 -36.5715 TS 50 11 63
1888250N15330 1888 42 NA NA NOT_NAMED 1888-09-10 12:00:00 TS 29.2000 -36.0000 main 1870 1811 _____________O -1 29.2000 -36.0000 TS 50 13 57
1888250N15330 1888 42 NA NA NOT_NAMED 1888-09-10 15:00:00 TS 29.6200 -35.3227 main 1801 1735 _____________P -1 29.6200 -35.3227 TS 50 15 54
1888250N15330 1888 42 NA NA NOT_NAMED 1888-09-10 18:00:00 TS 30.1000 -34.6000 main 1735 1670 _____________O -1 30.1000 -34.6000 TS 50 15 53
1888250N15330 1888 42 NA NA NOT_NAMED 1888-09-10 21:00:00 TS 30.5496 -33.8994 main 1670 1609 _____________P -1 30.5496 -33.8994 TS 50 15 53
1888250N15330 1888 42 NA NA NOT_NAMED 1888-09-11 00:00:00 TS 31.0000 -33.2000 main 1609 1549 _____________O -1 31.0000 -33.2000 TS 50 15 53
1888250N15330 1888 42 NA NA NOT_NAMED 1888-09-11 03:00:00 TS 31.4496 -32.4993 main 1549 1494 _____________P -1 31.4496 -32.4993 TS 50 15 53
1888250N15330 1888 42 NA NA NOT_NAMED 1888-09-11 06:00:00 TS 31.9000 -31.8000 main 1494 1446 _____________O -1 31.9000 -31.8000 TS 50 14 56
1888250N15330 1888 42 NA NA NOT_NAMED 1888-09-11 09:00:00 TS 32.2519 -31.1115 main 1440 1392 _____________P -1 32.2519 -31.1115 TS 50 15 53
1888250N15330 1888 42 NA NA NOT_NAMED 1888-09-11 12:00:00 TS 32.8000 -30.4000 main 1392 1365 _____________O -1 32.8000 -30.4000 TS 50 20 39
1888250N15330 1888 42 NA NA NOT_NAMED 1888-09-11 15:00:00 TS 33.8024 -29.6158 main 1361 1350 _____________P -1 33.8024 -29.6158 TS 50 26 31
1888250N15330 1888 42 NA NA NOT_NAMED 1888-09-11 18:00:00 TS 35.0000 -28.8000 main 1356 1354 _____________O -1 35.0000 -28.8000 TS 50 27 30
1888250N15330 1888 42 NA NA NOT_NAMED 1888-09-11 21:00:00 TS 36.0995 -27.9978 main 1363 1362 _____________P -1 36.0995 -27.9978 TS 50 26 30
1888250N15330 1888 42 NA NA NOT_NAMED 1888-09-12 00:00:00 TS 37.2000 -27.2000 main 1386 1386 _____________O -1 37.2000 -27.2000 TS 50 26 30
1888250N15330 1888 42 NA NA NOT_NAMED 1888-09-12 03:00:00 TS 38.3069 -26.3979 main 1425 1394 _____________P -1 38.3069 -26.3979 TS 50 25 30
1888250N15330 1888 42 NA NA NOT_NAMED 1888-09-12 06:00:00 TS 39.4000 -25.6000 main 1385 1299 _____________O -1 39.4000 -25.6000 TS 50 25 36
1888250N15330 1888 42 NA NA NOT_NAMED 1888-09-12 09:00:00 TS 40.2930 -24.5168 main 1290 1217 _____________P -1 40.2930 -24.5168 TS 47 24 30
1888250N15330 1888 42 NA NA NOT_NAMED 1888-09-12 12:00:00 TS 41.5000 -24.0000 main 1215 1206 _____________O -1 41.5000 -24.0000 TS 45 31 357
1888250N15330 1888 42 NA NA NOT_NAMED 1888-09-12 15:00:00 TS 43.4341 -24.7544 main 1250 1249 _____________P -1 43.4341 -24.7544 TS 45 46 338
1888250N15330 1888 42 NA NA NOT_NAMED 1888-09-12 18:00:00 ET 45.8000 -26.4000 main 1339 _____________O -1 45.8000 -26.4000 EX 45 53 334

IBTrACS Databaseについて

本データベースは、米国NOAAが公開する1842年以降の世界の熱帯低気圧のベストトラックデータアーカイブInternational Best Track Archive for Climate Stewardship (IBTrACS)を、ウェブで閲覧しやすい形式に変換したものです。

最終更新日:2021-10-25